Time;durP1;ratioP1;P1;durP2;ratioP2;P2;SDS_P1;SDS_P2;PMS_P1;PMS_P2;Temp;Humidity;BMP_temperature;BMP_pressure;BME280_temperature;BME280_humidity;BME280_pressure;Samples;Min_cycle;Max_cycle;Signal;HPM_P1;HPM_P2
2022/10/27 00:02:19;;;;;;;;;;;;;;;19.40;42.05;99687.88;5029991;28;20351;-77
2022/10/27 00:04:45;;;;;;;;;;;;;;;19.40;42.17;99695.00;5029650;28;20468;-77
2022/10/27 00:07:10;;;;;;;;;;;;;;;19.38;42.03;99697.78;5031307;28;19932;-79
2022/10/27 00:09:35;;;;;;;;;;;;;;;19.38;41.95;99694.31;5024437;28;20320;-77
2022/10/27 00:12:00;;;;;;;;;;;;;;;19.35;42.00;99692.78;5029978;28;19967;-77
2022/10/27 00:14:26;;;;;;;;;;;;;;;19.36;42.02;99693.66;5030005;28;19924;-77
2022/10/27 00:16:52;;;;;;;;;;;;;;;19.31;41.97;99684.34;5031261;28;19928;-77
2022/10/27 00:19:17;;;;;;;;;;;;;;;19.32;41.93;99682.50;5030210;28;20408;-77
2022/10/27 00:21:43;;;;;;;;;;;;;;;19.31;42.11;99686.97;5030234;28;19917;-77
2022/10/27 00:24:08;;;;;;;;;;;;;;;19.29;42.09;99688.09;5031980;28;19923;-78
2022/10/27 00:26:33;;;;;;;;;;;;;;;19.28;42.02;99687.28;5035836;28;19921;-76
2022/10/27 00:28:59;;;;;;;;;;;;;;;19.26;42.01;99678.66;5036887;28;19917;-78
2022/10/27 00:31:24;;;;;;;;;;;;;;;19.25;41.90;99681.47;5036452;28;20376;-76
2022/10/27 00:33:50;;;;;;;;;;;;;;;19.24;41.97;99677.97;5036447;28;19967;-76
2022/10/27 00:36:16;;;;;;;;;;;;;;;19.24;41.85;99677.13;5052538;28;20022;-77
2022/10/27 00:38:41;;;;;;;;;;;;;;;19.23;41.72;99680.75;5036448;28;19960;-76
2022/10/27 00:41:07;;;;;;;;;;;;;;;19.22;41.87;99677.28;5036332;28;20431;-78
2022/10/27 00:43:34;;;;;;;;;;;;;;;19.21;41.78;99677.44;5036291;28;19975;-78
2022/10/27 00:46:25;;;;;;;;;;;;;;;19.19;41.86;99674.94;5036465;28;19925;-77
2022/10/27 00:48:51;;;;;;;;;;;;;;;19.18;41.86;99667.97;4987010;28;19961;-77
2022/10/27 00:51:17;;;;;;;;;;;;;;;19.15;41.87;99670.94;4969093;28;19949;-77
2022/10/27 00:53:42;;;;;;;;;;;;;;;19.15;41.80;99670.94;4985844;28;19933;-78
2022/10/27 00:56:07;;;;;;;;;;;;;;;19.14;41.84;99670.09;4970480;28;19919;-78
2022/10/27 00:58:33;;;;;;;;;;;;;;;19.12;41.90;99682.66;4985001;28;20009;-79
2022/10/27 01:00:58;;;;;;;;;;;;;;;19.12;41.87;99671.25;4970459;28;19917;-78
2022/10/27 01:03:24;;;;;;;;;;;;;;;19.10;41.94;99674.03;4969855;28;19918;-79
2022/10/27 01:05:49;;;;;;;;;;;;;;;19.09;41.99;99676.84;4997298;28;19918;-78
2022/10/27 01:08:16;;;;;;;;;;;;;;;19.08;41.93;99673.34;4996683;28;19918;-78
2022/10/27 01:10:42;;;;;;;;;;;;;;;19.07;41.91;99676.13;4996782;28;19925;-78
2022/10/27 01:13:07;;;;;;;;;;;;;;;19.06;42.11;99674.47;4997579;28;20012;-78
2022/10/27 01:15:35;;;;;;;;;;;;;;;19.04;42.02;99673.78;4997349;28;19972;-77
2022/10/27 01:18:03;;;;;;;;;;;;;;;19.02;42.03;99678.41;4997194;28;20397;-75
2022/10/27 01:20:34;;;;;;;;;;;;;;;19.01;42.00;99677.56;4997668;28;19918;-77
2022/10/27 01:22:59;;;;;;;;;;;;;;;19.00;41.93;99678.53;4997295;28;19917;-77
2022/10/27 01:25:43;;;;;;;;;;;;;;;18.98;42.05;99675.22;5014558;28;20301;-78
2022/10/27 01:28:08;;;;;;;;;;;;;;;18.97;42.05;99679.66;5037687;28;19971;-77
2022/10/27 01:30:49;;;;;;;;;;;;;;;18.97;42.02;99682.31;5037474;28;20400;-77
2022/10/27 01:33:15;;;;;;;;;;;;;;;18.97;42.04;99689.41;5037629;28;19917;-77
2022/10/27 01:35:44;;;;;;;;;;;;;;;18.96;41.99;99687.75;5036222;28;20292;-77
2022/10/27 01:38:10;;;;;;;;;;;;;;;18.94;42.09;99687.06;5035645;28;19921;-77
2022/10/27 01:40:42;;;;;;;;;;;;;;;18.93;42.05;99683.59;5034678;28;19923;-77
2022/10/27 01:43:09;;;;;;;;;;;;;;;18.92;42.09;99689.03;5034364;28;19917;-77
2022/10/27 01:45:35;;;;;;;;;;;;;;;18.91;42.10;99700.59;5034119;28;19988;-77
2022/10/27 01:48:00;;;;;;;;;;;;;;;18.91;42.28;99697.94;5035323;28;19925;-77
2022/10/27 01:50:29;;;;;;;;;;;;;;;18.89;42.16;99699.91;5034149;28;19917;-77
2022/10/27 01:52:55;;;;;;;;;;;;;;;18.89;42.22;99695.44;5033654;28;19972;-77
2022/10/27 01:55:26;;;;;;;;;;;;;;;18.87;42.25;99694.78;5034145;28;19967;-77
2022/10/27 01:58:05;;;;;;;;;;;;;;;18.86;42.04;99706.31;5034198;28;19975;-77
2022/10/27 02:00:35;;;;;;;;;;;;;;;18.87;42.10;99704.53;5033912;28;19917;-77
2022/10/27 02:03:11;;;;;;;;;;;;;;;18.87;42.14;99708.00;5034034;28;19917;-77
2022/10/27 02:05:43;;;;;;;;;;;;;;;18.87;42.16;99705.34;5033927;28;19917;-79
2022/10/27 02:08:20;;;;;;;;;;;;;;;18.87;42.05;99702.69;5035289;28;20430;-76
2022/10/27 02:11:06;;;;;;;;;;;;;;;18.86;42.04;99708.97;5034861;28;20385;-76
2022/10/27 02:13:31;;;;;;;;;;;;;;;18.85;42.18;99703.81;5034471;28;19917;-76
2022/10/27 02:16:01;;;;;;;;;;;;;;;18.85;41.98;99709.97;5033979;28;20282;-76
2022/10/27 02:18:27;;;;;;;;;;;;;;;18.86;42.23;99716.06;5034808;28;19952;-76
2022/10/27 02:20:52;;;;;;;;;;;;;;;18.83;42.22;99714.50;5035309;28;19972;-75
2022/10/27 02:23:18;;;;;;;;;;;;;;;18.83;42.29;99711.88;5033666;28;19917;-77
2022/10/27 02:25:47;;;;;;;;;;;;;;;18.83;42.47;99714.50;5034153;28;20404;-77
2022/10/27 02:28:12;;;;;;;;;;;;;;;18.85;42.40;99714.41;5033705;28;19917;-76
2022/10/27 02:30:37;;;;;;;;;;;;;;;18.83;42.50;99725.09;5033496;28;20293;-76
2022/10/27 02:33:03;;;;;;;;;;;;;;;18.83;42.63;99722.44;5033558;28;19925;-76
2022/10/27 02:35:28;;;;;;;;;;;;;;;18.81;42.62;99727.88;5033687;28;19917;-76
2022/10/27 02:37:54;;;;;;;;;;;;;;;18.81;42.55;99721.78;5033223;28;20312;-76
2022/10/27 02:40:20;;;;;;;;;;;;;;;18.79;42.37;99727.22;5033466;28;19917;-76
2022/10/27 02:42:45;;;;;;;;;;;;;;;18.79;42.48;99729.03;5033136;28;19952;-77
2022/10/27 02:45:10;;;;;;;;;;;;;;;18.78;42.44;99740.56;5033468;28;19917;-76
2022/10/27 02:47:35;;;;;;;;;;;;;;;18.76;42.48;99738.06;5031904;28;19917;-77
2022/10/27 02:50:01;;;;;;;;;;;;;;;18.76;42.50;99738.06;5032966;28;19917;-76
2022/10/27 02:52:26;;;;;;;;;;;;;;;18.74;42.44;99742.69;5032929;28;20270;-77
2022/10/27 02:54:51;;;;;;;;;;;;;;;18.73;42.62;99745.47;5034645;28;19979;-77
2022/10/27 02:57:17;;;;;;;;;;;;;;;18.71;42.65;99739.50;5034083;28;19967;-79
2022/10/27 02:59:42;;;;;;;;;;;;;;;18.70;42.67;99745.75;5049032;28;19957;-79
2022/10/27 03:02:08;;;;;;;;;;;;;;;18.68;42.61;99742.44;5032593;28;19964;-76
2022/10/27 03:04:33;;;;;;;;;;;;;;;18.68;42.70;99750.38;5033898;28;19925;-76
2022/10/27 03:06:58;;;;;;;;;;;;;;;18.67;43.01;99754.81;5032625;28;19924;-77
2022/10/27 03:09:24;;;;;;;;;;;;;;;18.66;42.89;99752.31;5032661;28;19917;-76
2022/10/27 03:11:49;;;;;;;;;;;;;;;18.66;42.94;99760.25;5033243;28;19975;-76
2022/10/27 03:14:14;;;;;;;;;;;;;;;18.65;43.05;99755.94;5032537;28;19924;-76
2022/10/27 03:16:39;;;;;;;;;;;;;;;18.62;42.99;99749.94;5032307;28;19917;-76
2022/10/27 03:19:05;;;;;;;;;;;;;;;18.61;42.94;99758.88;5033905;28;19924;-76
2022/10/27 03:21:30;;;;;;;;;;;;;;;18.61;42.96;99758.88;5033417;28;19917;-76
2022/10/27 03:23:55;;;;;;;;;;;;;;;18.62;43.03;99759.72;5032077;28;19924;-77
2022/10/27 03:26:21;;;;;;;;;;;;;;;18.61;42.92;99755.38;5031511;28;19918;-76
2022/10/27 03:28:46;;;;;;;;;;;;;;;18.59;42.98;99758.16;5031649;28;19918;-76
2022/10/27 03:31:11;;;;;;;;;;;;;;;18.58;43.13;99755.66;5031694;28;19917;-77
2022/10/27 03:33:37;;;;;;;;;;;;;;;18.57;43.00;99749.56;5031653;28;19963;-75
2022/10/27 03:36:02;;;;;;;;;;;;;;;18.58;43.00;99753.03;5033545;28;19931;-76
2022/10/27 03:38:27;;;;;;;;;;;;;;;18.57;43.21;99756.66;5031603;28;19960;-76
2022/10/27 03:40:53;;;;;;;;;;;;;;;18.55;43.08;99759.44;5031991;28;20298;-76
2022/10/27 03:43:18;;;;;;;;;;;;;;;18.54;43.25;99757.78;5032973;28;19944;-76
2022/10/27 03:45:46;;;;;;;;;;;;;;;18.59;46.50;99763.47;5032061;28;19918;-77
2022/10/27 03:48:11;;;;;;;;;;;;;;;18.57;45.74;99761.97;5047856;28;19917;-78
2022/10/27 03:50:36;;;;;;;;;;;;;;;18.53;45.22;99760.56;5033050;28;19917;-82
2022/10/27 03:53:02;;;;;;;;;;;;;;;18.49;45.00;99762.66;5031549;28;20008;-89
2022/10/27 03:55:28;;;;;;;;;;;;;;;18.46;44.78;99764.78;5032923;28;20404;-85
2022/10/27 03:57:53;;;;;;;;;;;;;;;18.45;45.76;99763.91;5033918;28;19925;-87
2022/10/27 04:00:19;;;;;;;;;;;;;;;18.40;45.43;99759.06;5035779;28;19989;-87
2022/10/27 04:02:44;;;;;;;;;;;;;;;18.37;44.99;99769.91;5031974;28;20087;-85
2022/10/27 04:05:09;;;;;;;;;;;;;;;18.35;45.58;99768.41;5048355;28;19917;-85
2022/10/27 04:07:35;;;;;;;;;;;;;;;18.32;45.45;99777.44;5032343;28;19925;-79
2022/10/27 04:10:00;;;;;;;;;;;;;;;18.27;45.26;99777.03;5032883;28;19917;-76
2022/10/27 04:12:25;;;;;;;;;;;;;;;18.21;45.18;99775.78;5033049;28;19917;-75
2022/10/27 04:14:51;;;;;;;;;;;;;;;18.20;44.99;99782.06;5031120;28;20015;-76
2022/10/27 04:17:16;;;;;;;;;;;;;;;18.15;44.71;99768.41;5032367;28;19917;-77
2022/10/27 04:19:43;;;;;;;;;;;;;;;18.11;44.64;99777.59;5047374;28;19917;-76
2022/10/27 04:22:08;;;;;;;;;;;;;;;18.07;44.70;99777.06;5033431;28;19917;-76
2022/10/27 04:24:33;;;;;;;;;;;;;;;18.06;44.48;99775.38;5031634;28;19924;-76
2022/10/27 04:26:58;;;;;;;;;;;;;;;18.01;44.53;99780.25;5031527;28;19917;-76
2022/10/27 04:29:24;;;;;;;;;;;;;;;17.98;44.43;99777.03;5047784;28;19967;-75
2022/10/27 04:31:49;;;;;;;;;;;;;;;17.93;44.62;99781.91;5031317;28;19917;-75
2022/10/27 04:34:14;;;;;;;;;;;;;;;17.90;44.56;99785.69;5031515;28;20301;-75
2022/10/27 04:36:40;;;;;;;;;;;;;;;17.88;44.56;99788.47;5031273;28;20284;-76
2022/10/27 04:39:05;;;;;;;;;;;;;;;17.84;44.46;99794.94;5022880;28;19918;-78
2022/10/27 04:41:31;;;;;;;;;;;;;;;17.81;44.62;99791.75;4999313;28;19925;-76
2022/10/27 04:43:56;;;;;;;;;;;;;;;17.80;44.60;99792.72;5008034;28;19918;-77
2022/10/27 04:46:21;;;;;;;;;;;;;;;17.78;44.62;99795.50;5008401;28;20369;-75
2022/10/27 04:48:47;;;;;;;;;;;;;;;17.80;44.40;99798.00;4995839;28;20012;-76
2022/10/27 04:51:12;;;;;;;;;;;;;;;17.78;44.53;99799.97;5011469;28;19921;-76
2022/10/27 04:53:37;;;;;;;;;;;;;;;17.80;44.63;99812.03;5011511;28;19968;-74
2022/10/27 04:56:03;;;;;;;;;;;;;;;17.82;44.46;99802.19;5011441;28;20016;-75
2022/10/27 04:58:28;;;;;;;;;;;;;;;17.84;44.64;99807.34;5011653;28;20016;-76
2022/10/27 05:00:53;;;;;;;;;;;;;;;17.98;44.14;99809.59;5009906;28;19975;-74
2022/10/27 05:03:19;;;;;;;;;;;;;;;18.10;43.85;99799.72;4993077;28;19918;-72
2022/10/27 05:05:44;;;;;;;;;;;;;;;18.11;44.12;99814.59;5009679;28;19968;-74
2022/10/27 05:08:10;;;;;;;;;;;;;;;18.16;44.03;99816.81;5010404;28;19918;-74
2022/10/27 05:10:36;;;;;;;;;;;;;;;18.51;43.25;99812.75;5010242;28;20000;-74
2022/10/27 05:13:01;;;;;;;;;;;;;;;18.95;42.42;99819.22;5014813;28;20004;-73
2022/10/27 05:15:26;;;;;;;;;;;;;;;19.42;41.57;99822.75;5014888;28;20005;-73
2022/10/27 05:17:52;;;;;;;;;;;;;;;19.90;40.51;99829.59;5030588;28;19975;-74
2022/10/27 05:20:17;;;;;;;;;;;;;;;20.35;39.53;99828.69;5015328;28;19921;-74
2022/10/27 05:22:42;;;;;;;;;;;;;;;20.76;38.42;99830.81;5013907;28;19917;-74
2022/10/27 05:25:08;;;;;;;;;;;;;;;21.22;37.75;99833.22;5014479;28;19924;-72
2022/10/27 05:27:33;;;;;;;;;;;;;;;21.62;36.64;99832.59;5013936;28;19921;-73
2022/10/27 05:29:58;;;;;;;;;;;;;;;22.02;36.01;99838.13;5014013;28;19917;-73
2022/10/27 05:32:24;;;;;;;;;;;;;;;22.38;35.21;99830.69;5013531;28;20305;-73
2022/10/27 05:34:49;;;;;;;;;;;;;;;22.72;34.43;99839.47;5013746;28;19918;-73
2022/10/27 05:37:14;;;;;;;;;;;;;;;23.05;33.68;99839.41;5014874;28;19929;-73
2022/10/27 05:39:39;;;;;;;;;;;;;;;23.35;33.40;99843.16;5014372;28;19921;-72
2022/10/27 05:42:05;;;;;;;;;;;;;;;23.86;38.24;99848.06;5016299;28;19917;-72
2022/10/27 05:44:30;;;;;;;;;;;;;;;24.36;33.19;99844.03;5015185;28;19917;-71
2022/10/27 05:46:55;;;;;;;;;;;;;;;24.02;32.12;99845.31;5015127;28;20312;-70
2022/10/27 05:49:21;;;;;;;;;;;;;;;23.66;32.43;99847.69;5013440;28;19918;-72
2022/10/27 05:51:49;;;;;;;;;;;;;;;23.43;32.85;99858.28;5013247;28;19917;-72
2022/10/27 05:54:15;;;;;;;;;;;;;;;23.42;33.05;99859.28;5013223;28;19926;-71
2022/10/27 05:56:40;;;;;;;;;;;;;;;24.06;31.81;99861.78;5014380;28;20308;-71
2022/10/27 05:59:05;;;;;;;;;;;;;;;24.48;30.81;99868.47;5013010;28;20324;-70
2022/10/27 06:01:31;;;;;;;;;;;;;;;24.91;30.18;99868.75;5014806;28;20395;-73
2022/10/27 06:03:56;;;;;;;;;;;;;;;25.32;29.76;99872.00;5012664;28;20389;-74
2022/10/27 06:06:21;;;;;;;;;;;;;;;25.67;28.79;99874.94;5012441;28;19918;-71
2022/10/27 06:08:47;;;;;;;;;;;;;;;26.12;28.60;99876.47;5012846;28;19924;-71
2022/10/27 06:11:12;;;;;;;;;;;;;;;26.33;28.50;99877.50;5014144;28;19917;-72
2022/10/27 06:13:37;;;;;;;;;;;;;;;27.03;28.50;99874.97;5014190;28;20348;-73
2022/10/27 06:16:03;;;;;;;;;;;;;;;27.60;26.86;99876.50;5011960;28;19925;-71
2022/10/27 06:18:28;;;;;;;;;;;;;;;27.99;25.61;99874.19;5013949;28;19918;-71
2022/10/27 06:20:53;;;;;;;;;;;;;;;28.53;24.82;99877.75;5011747;28;19921;-72
2022/10/27 06:23:19;;;;;;;;;;;;;;;29.23;23.82;99882.66;5011754;28;20407;-72
2022/10/27 06:25:44;;;;;;;;;;;;;;;29.52;23.90;99880.50;5011642;28;19917;-72
2022/10/27 06:28:09;;;;;;;;;;;;;;;29.02;23.89;99881.03;5012518;28;19953;-73
2022/10/27 06:30:35;;;;;;;;;;;;;;;28.60;23.92;99889.34;5012284;28;20017;-72
2022/10/27 06:33:00;;;;;;;;;;;;;;;28.28;23.65;99889.09;5012696;28;19917;-72
2022/10/27 06:35:25;;;;;;;;;;;;;;;27.87;24.77;99895.38;5013425;28;20063;-72
2022/10/27 06:37:51;;;;;;;;;;;;;;;27.36;25.68;99887.78;5011894;28;19957;-72
2022/10/27 06:40:16;;;;;;;;;;;;;;;26.95;28.27;99893.91;5004664;28;20033;-73
2022/10/27 06:42:42;;;;;;;;;;;;;;;26.87;29.08;99887.66;5013169;28;19924;-73
2022/10/27 06:45:07;;;;;;;;;;;;;;;26.95;28.80;99893.91;5012574;28;19917;-71
2022/10/27 06:47:33;;;;;;;;;;;;;;;27.03;28.67;99894.56;5012478;28;19922;-76
2022/10/27 06:49:58;;;;;;;;;;;;;;;27.20;28.57;99892.41;5012679;28;19924;-77
2022/10/27 06:52:24;;;;;;;;;;;;;;;27.47;27.86;99897.94;5014309;28;19945;-78
2022/10/27 06:54:49;;;;;;;;;;;;;;;27.46;26.34;99904.31;5013073;28;19973;-80
2022/10/27 06:57:19;;;;;;;;;;;;;;;27.24;26.09;99901.69;4998161;28;19917;-83
2022/10/27 06:59:45;;;;;;;;;;;;;;;26.83;26.84;99902.44;5014758;28;19948;-83
2022/10/27 07:02:11;;;;;;;;;;;;;;;26.52;26.57;99908.97;4997100;28;19917;-74
2022/10/27 07:04:36;;;;;;;;;;;;;;;26.30;27.37;99913.50;5014053;28;20000;-79
2022/10/27 07:07:01;;;;;;;;;;;;;;;26.37;30.93;99908.22;4996569;28;19925;-72
2022/10/27 07:09:27;;;;;;;;;;;;;;;26.56;29.83;99911.28;5013089;28;19924;-76
2022/10/27 07:11:52;;;;;;;;;;;;;;;26.63;29.90;99913.00;4996518;28;20373;-71
2022/10/27 07:14:17;;;;;;;;;;;;;;;26.67;29.29;99914.28;5040130;22;19933;-80
2022/10/27 07:16:42;;;;;;;;;;;;;;;26.61;28.81;99906.16;4981664;28;19929;-72
2022/10/27 07:19:08;;;;;;;;;;;;;;;26.62;29.83;99907.81;4974594;28;19918;-77
2022/10/27 07:21:33;;;;;;;;;;;;;;;26.60;30.05;99912.53;4959317;28;20320;-85
2022/10/27 07:23:59;;;;;;;;;;;;;;;26.71;29.62;99912.06;4975947;28;19926;-84
2022/10/27 07:26:24;;;;;;;;;;;;;;;26.95;28.48;99912.66;4994109;28;20056;-84
2022/10/27 07:28:49;;;;;;;;;;;;;;;27.00;28.40;99916.38;4978204;28;20308;-84
2022/10/27 07:31:15;;;;;;;;;;;;;;;27.15;27.86;99915.44;4979144;28;20342;-68
2022/10/27 07:33:40;;;;;;;;;;;;;;;27.06;27.95;99915.59;4993272;28;20444;-67
2022/10/27 07:36:05;;;;;;;;;;;;;;;27.11;28.74;99924.91;4992354;28;19914;-69
2022/10/27 07:38:31;;;;;;;;;;;;;;;27.36;28.79;99922.63;4976262;28;19918;-69
2022/10/27 07:40:56;;;;;;;;;;;;;;;27.70;28.11;99915.53;4992812;28;19921;-70
2022/10/27 07:43:21;;;;;;;;;;;;;;;28.32;27.65;99925.25;4976482;28;20392;-73
2022/10/27 07:45:47;;;;;;;;;;;;;;;28.82;26.66;99916.81;4993073;28;19948;-79
2022/10/27 07:48:12;;;;;;;;;;;;;;;29.42;25.60;99921.28;5001720;28;19925;-88
2022/10/27 07:50:38;;;;;;;;;;;;;;;29.69;25.84;99913.13;4995650;28;19918;-88
2022/10/27 07:53:03;;;;;;;;;;;;;;;30.24;24.47;99920.72;4978360;28;19917;-81
2022/10/27 07:55:29;;;;;;;;;;;;;;;30.81;23.67;99909.94;4993735;28;20415;-79
2022/10/27 07:57:59;;;;;;;;;;;;;;;31.30;23.13;99915.50;4992440;28;19918;-79
2022/10/27 08:00:24;;;;;;;;;;;;;;;31.77;21.72;99923.03;4992540;28;19918;-77
2022/10/27 08:02:49;;;;;;;;;;;;;;;32.17;21.91;99926.06;4976415;28;20343;-79
2022/10/27 08:05:15;;;;;;;;;;;;;;;32.59;21.03;99923.34;4992074;28;20012;-81
2022/10/27 08:07:40;;;;;;;;;;;;;;;32.93;20.37;99920.91;4981426;28;19918;-78
2022/10/27 08:10:06;;;;;;;;;;;;;;;33.23;19.83;99919.97;4982715;28;20441;-78
2022/10/27 08:12:31;;;;;;;;;;;;;;;33.47;19.21;99912.63;4981127;28;19924;-79
2022/10/27 08:14:57;;;;;;;;;;;;;;;33.75;18.73;99915.59;4983078;28;20395;-77
2022/10/27 08:17:25;;;;;;;;;;;;;;;34.00;18.56;99913.41;4991528;28;20379;-78
2022/10/27 08:19:50;;;;;;;;;;;;;;;34.23;17.87;99917.88;4986083;28;19922;-78
2022/10/27 08:22:15;;;;;;;;;;;;;;;34.49;17.67;99920.19;5013144;28;19917;-79
2022/10/27 08:24:41;;;;;;;;;;;;;;;34.65;17.83;99913.97;5027934;28;20342;-79
2022/10/27 08:27:06;;;;;;;;;;;;;;;34.91;17.22;99917.09;5013056;28;19917;-79
2022/10/27 08:29:32;;;;;;;;;;;;;;;35.09;17.12;99924.09;5012080;28;19925;-77
2022/10/27 08:31:57;;;;;;;;;;;;;;;35.26;17.00;99916.78;4996428;28;20398;-79
2022/10/27 08:34:22;;;;;;;;;;;;;;;35.44;17.02;99915.66;5013034;28;19917;-80
2022/10/27 08:36:48;;;;;;;;;;;;;;;35.64;16.76;99923.19;5014199;28;19972;-79
2022/10/27 08:39:13;;;;;;;;;;;;;;;35.69;16.83;99914.28;5017020;28;19917;-85
2022/10/27 08:41:57;;;;;;;;;;;;;;;35.84;16.54;99917.22;5037260;28;20376;-89
2022/10/27 08:44:26;;;;;;;;;;;;;;;36.07;16.66;99917.97;5015046;28;19966;-77
2022/10/27 08:46:52;;;;;;;;;;;;;;;36.32;16.25;99919.31;5036623;28;19994;-77
2022/10/27 08:49:29;;;;;;;;;;;;;;;36.53;16.09;99915.69;5036901;28;19923;-77
2022/10/27 08:51:57;;;;;;;;;;;;;;;36.75;15.58;99906.59;5019053;28;19986;-76
2022/10/27 08:54:22;;;;;;;;;;;;;;;36.85;15.40;99914.03;5017923;28;19924;-75
2022/10/27 08:56:49;;;;;;;;;;;;;;;37.01;15.21;99910.31;5017090;28;20331;-76
2022/10/27 08:59:17;;;;;;;;;;;;;;;37.39;15.22;99908.31;5017274;28;19923;-75
2022/10/27 09:01:43;;;;;;;;;;;;;;;38.09;14.35;99907.16;5034759;28;19917;-77
2022/10/27 09:04:14;;;;;;;;;;;;;;;38.77;13.72;99906.09;5034566;28;20185;-76
2022/10/27 09:06:45;;;;;;;;;;;;;;;39.23;13.30;99903.22;5016553;28;20395;-75
2022/10/27 09:09:10;;;;;;;;;;;;;;;39.39;12.89;99907.53;5035351;28;19917;-76
2022/10/27 09:11:48;;;;;;;;;;;;;;;39.18;13.08;99901.34;5018547;28;19928;-75
2022/10/27 09:14:19;;;;;;;;;;;;;;;38.83;13.22;99900.34;5018483;28;19932;-75
2022/10/27 09:16:44;;;;;;;;;;;;;;;38.59;13.11;99908.28;5035939;28;19921;-75
2022/10/27 09:19:14;;;;;;;;;;;;;;;38.43;13.52;99901.19;5018043;28;20280;-77
2022/10/27 09:21:40;;;;;;;;;;;;;;;38.34;13.57;99904.47;5001886;28;19957;-77
2022/10/27 09:24:07;;;;;;;;;;;;;;;38.17;13.71;99898.47;5017268;28;19963;-77
2022/10/27 09:26:32;;;;;;;;;;;;;;;38.08;13.55;99894.59;5001732;28;19917;-78
2022/10/27 09:28:59;;;;;;;;;;;;;;;38.07;13.65;99893.00;5018796;28;20394;-76
2022/10/27 09:31:42;;;;;;;;;;;;;;;37.97;14.08;99894.63;5034406;28;19917;-76
2022/10/27 09:34:22;;;;;;;;;;;;;;;37.96;14.22;99892.97;5014556;28;20383;-76
2022/10/27 09:36:48;;;;;;;;;;;;;;;37.91;13.92;99887.53;5016051;28;19991;-77
2022/10/27 09:39:13;;;;;;;;;;;;;;;37.88;14.05;99884.53;5013912;28;20379;-76
2022/10/27 09:41:38;;;;;;;;;;;;;;;37.87;13.79;99882.88;4998648;28;19941;-76
2022/10/27 09:44:04;;;;;;;;;;;;;;;37.80;14.21;99881.22;5014404;28;19917;-76
2022/10/27 09:46:29;;;;;;;;;;;;;;;37.83;14.03;99880.69;5014433;28;19964;-76
2022/10/27 09:49:00;;;;;;;;;;;;;;;37.93;14.36;99879.88;5014371;28;20388;-74
2022/10/27 09:51:26;;;;;;;;;;;;;;;38.00;14.22;99874.16;5014586;28;20322;-77
2022/10/27 09:53:51;;;;;;;;;;;;;;;38.07;14.04;99872.00;4997965;28;19922;-77
2022/10/27 09:56:29;;;;;;;;;;;;;;;37.87;14.12;99866.53;5013333;28;19924;-76
2022/10/27 09:59:01;;;;;;;;;;;;;;;37.76;14.54;99865.69;5014228;28;20400;-75
2022/10/27 10:01:27;;;;;;;;;;;;;;;37.70;14.20;99866.78;5030683;28;20059;-76
2022/10/27 10:03:58;;;;;;;;;;;;;;;37.56;14.52;99867.28;5015200;28;19917;-75
2022/10/27 10:06:31;;;;;;;;;;;;;;;37.37;14.68;99864.22;5013763;28;19918;-75
2022/10/27 10:09:06;;;;;;;;;;;;;;;37.19;14.63;99867.38;5014183;28;20015;-76
2022/10/27 10:11:31;;;;;;;;;;;;;;;37.06;15.03;99869.50;5014072;28;19918;-76
2022/10/27 10:13:57;;;;;;;;;;;;;;;36.99;15.08;99865.38;5013536;28;20273;-75
2022/10/27 10:16:22;;;;;;;;;;;;;;;36.81;14.93;99862.03;5013830;28;20052;-75
2022/10/27 10:19:14;;;;;;;;;;;;;;;36.62;14.99;99864.34;5013723;28;20003;-75
2022/10/27 10:21:52;;;;;;;;;;;;;;;36.37;15.26;99867.69;5012593;28;19936;-77
2022/10/27 10:24:19;;;;;;;;;;;;;;;36.15;15.62;99856.91;5014825;28;19917;-74
2022/10/27 10:26:44;;;;;;;;;;;;;;;36.01;15.37;99849.19;5013735;28;20447;-76
2022/10/27 10:29:13;;;;;;;;;;;;;;;35.91;15.67;99859.13;5013769;28;19960;-76
2022/10/27 10:31:38;;;;;;;;;;;;;;;35.72;15.71;99855.94;5013631;28;19918;-78
2022/10/27 10:34:05;;;;;;;;;;;;;;;35.57;16.08;99848.47;5013578;28;20363;-76
2022/10/27 10:36:37;;;;;;;;;;;;;;;35.45;16.05;99851.31;5013449;28;19972;-75
2022/10/27 10:39:03;;;;;;;;;;;;;;;35.33;16.18;99854.19;5013379;28;20450;-75
2022/10/27 10:41:28;;;;;;;;;;;;;;;35.20;16.40;99849.09;4996954;28;19918;-74
2022/10/27 10:44:12;;;;;;;;;;;;;;;35.09;16.46;99846.25;5013469;28;20008;-75
2022/10/27 10:46:54;;;;;;;;;;;;;;;34.90;16.34;99840.31;5013038;28;19917;-75
2022/10/27 10:49:23;;;;;;;;;;;;;;;34.72;16.38;99841.38;5013006;28;19925;-75
2022/10/27 10:51:49;;;;;;;;;;;;;;;34.53;16.95;99840.84;5013153;28;19924;-75
2022/10/27 10:54:16;;;;;;;;;;;;;;;34.40;16.62;99842.00;5012983;28;19924;-76
2022/10/27 10:56:42;;;;;;;;;;;;;;;34.29;17.20;99839.41;5013057;28;19918;-75
2022/10/27 10:59:11;;;;;;;;;;;;;;;34.10;17.49;99836.09;5013171;28;19948;-76
2022/10/27 11:01:46;;;;;;;;;;;;;;;33.93;17.32;99839.59;5014191;28;19993;-76
2022/10/27 11:04:17;;;;;;;;;;;;;;;33.72;17.25;99835.72;5012995;28;19921;-76
2022/10/27 11:07:01;;;;;;;;;;;;;;;33.46;17.27;99829.81;5014125;28;19926;-77
2022/10/27 11:09:26;;;;;;;;;;;;;;;33.24;17.51;99835.03;5013119;28;19968;-76
2022/10/27 11:11:52;;;;;;;;;;;;;;;33.07;17.39;99826.81;5013162;28;20003;-75
2022/10/27 11:14:18;;;;;;;;;;;;;;;32.86;17.64;99824.72;5012632;28;20304;-75
2022/10/27 11:16:46;;;;;;;;;;;;;;;32.67;17.97;99813.25;5013059;28;20020;-73
2022/10/27 11:19:14;;;;;;;;;;;;;;;32.52;18.26;99814.50;5012567;28;19922;-77
2022/10/27 11:21:58;;;;;;;;;;;;;;;32.38;18.52;99816.63;5013000;28;19943;-76
2022/10/27 11:24:40;;;;;;;;;;;;;;;32.12;18.83;99831.41;5013753;28;19918;-76
2022/10/27 11:27:13;;;;;;;;;;;;;;;31.95;18.95;99817.72;5012464;28;19922;-75
2022/10/27 11:29:41;;;;;;;;;;;;;;;31.80;18.90;99820.00;5012892;28;20012;-76
2022/10/27 11:32:08;;;;;;;;;;;;;;;31.69;19.27;99821.63;4996626;28;20339;-76
2022/10/27 11:34:45;;;;;;;;;;;;;;;31.61;19.03;99816.56;5012294;28;20323;-75
2022/10/27 11:37:16;;;;;;;;;;;;;;;31.54;19.52;99816.66;5013494;28;19948;-75
2022/10/27 11:39:44;;;;;;;;;;;;;;;31.43;19.41;99804.72;5013311;28;19924;-76
2022/10/27 11:42:21;;;;;;;;;;;;;;;31.34;19.96;99806.94;5012210;28;19918;-76
2022/10/27 11:44:52;;;;;;;;;;;;;;;31.23;19.80;99809.56;5012158;28;19918;-75
2022/10/27 11:47:17;;;;;;;;;;;;;;;31.07;19.84;99803.72;5013355;28;19967;-74
2022/10/27 11:49:43;;;;;;;;;;;;;;;30.78;19.77;99806.09;5011945;28;19921;-75
2022/10/27 11:52:12;;;;;;;;;;;;;;;30.54;20.08;99804.28;5011741;28;19921;-76
2022/10/27 11:54:37;;;;;;;;;;;;;;;30.33;20.70;99800.94;5011945;28;20016;-75
2022/10/27 11:57:21;;;;;;;;;;;;;;;30.15;20.91;99801.69;5011888;28;19960;-75
2022/10/27 11:59:46;;;;;;;;;;;;;;;30.03;21.03;99796.19;5011940;28;19917;-78
2022/10/27 12:02:27;;;;;;;;;;;;;;;29.94;20.88;99792.94;5011734;28;20295;-75
2022/10/27 12:04:52;;;;;;;;;;;;;;;29.85;20.92;99798.81;5011724;28;20359;-75
2022/10/27 12:07:36;;;;;;;;;;;;;;;29.73;20.95;99791.41;5011754;28;19917;-76
2022/10/27 12:10:20;;;;;;;;;;;;;;;29.61;21.36;99787.75;5013144;28;20036;-75
2022/10/27 12:12:46;;;;;;;;;;;;;;;29.53;21.69;99791.50;5012846;28;20312;-76
2022/10/27 12:15:12;;;;;;;;;;;;;;;29.46;21.82;99792.59;5010838;28;20016;-75
2022/10/27 12:17:37;;;;;;;;;;;;;;;29.36;21.53;99787.66;5013159;28;20019;-74
2022/10/27 12:20:03;;;;;;;;;;;;;;;29.31;21.65;99790.19;5011366;28;19922;-75
2022/10/27 12:22:32;;;;;;;;;;;;;;;29.27;21.69;99786.25;5011644;28;19971;-75
2022/10/27 12:25:10;;;;;;;;;;;;;;;29.20;22.10;99783.63;5011799;28;19918;-76
2022/10/27 12:27:36;;;;;;;;;;;;;;;29.16;22.04;99782.34;5011576;28;20287;-75
2022/10/27 12:30:22;;;;;;;;;;;;;;;29.01;21.97;99786.13;5011495;28;20364;-76
2022/10/27 12:32:55;;;;;;;;;;;;;;;28.93;22.23;99785.56;5012506;28;20012;-75
2022/10/27 12:35:31;;;;;;;;;;;;;;;28.95;22.17;99778.09;5011542;28;19925;-75
2022/10/27 12:38:00;;;;;;;;;;;;;;;28.89;22.19;99779.75;5012079;28;19976;-75
2022/10/27 12:40:28;;;;;;;;;;;;;;;28.84;22.19;99783.09;5011991;28;19941;-75
2022/10/27 12:43:06;;;;;;;;;;;;;;;28.79;22.21;99795.50;5012733;28;20372;-75
2022/10/27 12:45:35;;;;;;;;;;;;;;;28.75;22.41;99783.53;5028140;28;19918;-79
2022/10/27 12:48:00;;;;;;;;;;;;;;;28.69;22.47;99783.34;5012062;28;19933;-76
2022/10/27 12:50:31;;;;;;;;;;;;;;;28.65;22.50;99789.34;5012072;28;19917;-76